createdAt,value
2017-06-15T00:00:04.004Z,83.40
2017-06-15T00:02:35.112Z,84.00
2017-06-15T00:05:05.574Z,83.20
2017-06-15T00:07:36.280Z,83.30
2017-06-15T00:10:07.111Z,83.30
2017-06-15T00:12:37.906Z,83.70
2017-06-15T00:15:09.516Z,83.70
2017-06-15T00:17:40.096Z,83.50
2017-06-15T00:20:10.232Z,83.80
2017-06-15T00:22:40.647Z,84.20
2017-06-15T00:25:10.829Z,83.50
2017-06-15T00:27:40.971Z,83.60
2017-06-15T00:30:11.227Z,83.80
2017-06-15T00:32:41.735Z,83.80
2017-06-15T00:35:12.087Z,83.80
2017-06-15T00:37:43.280Z,83.00
2017-06-15T00:40:13.403Z,82.90
2017-06-15T00:42:44.829Z,83.30
2017-06-15T00:45:15.255Z,83.30
2017-06-15T00:47:45.974Z,84.00
2017-06-15T00:50:16.836Z,83.30
2017-06-15T00:52:47.278Z,83.20
2017-06-15T00:55:17.751Z,83.20
2017-06-15T00:57:50.379Z,84.60
2017-06-15T01:00:21.056Z,83.80
2017-06-15T01:02:51.690Z,83.90
2017-06-15T01:05:22.665Z,84.00
2017-06-15T01:07:53.205Z,83.60
2017-06-15T01:10:23.718Z,83.60
2017-06-15T01:12:54.558Z,83.60
2017-06-15T01:15:24.900Z,83.50
2017-06-15T01:17:55.303Z,83.40
2017-06-15T01:20:26.065Z,83.30
2017-06-15T01:22:57.323Z,83.40
2017-06-15T01:25:28.142Z,83.30
2017-06-15T01:27:58.546Z,83.30
2017-06-15T01:30:30.119Z,83.50
2017-06-15T01:33:00.764Z,83.60
2017-06-15T01:35:31.304Z,83.90
2017-06-15T01:38:01.694Z,83.90
2017-06-15T01:40:32.135Z,84.10
2017-06-15T01:43:02.539Z,84.00
2017-06-15T01:45:32.906Z,84.00
2017-06-15T01:48:03.475Z,84.20
2017-06-15T01:50:34.512Z,84.20
2017-06-15T01:53:05.171Z,85.00
2017-06-15T01:55:35.927Z,84.30
2017-06-15T01:58:06.553Z,84.30
2017-06-15T02:00:36.804Z,84.30
2017-06-15T02:03:08.005Z,84.70
2017-06-15T02:05:38.638Z,84.50
2017-06-15T02:08:09.374Z,84.40
2017-06-15T02:10:40.219Z,84.30
2017-06-15T02:13:10.730Z,84.00
2017-06-15T02:15:41.171Z,84.10
2017-06-15T02:18:11.847Z,84.30
2017-06-15T02:20:42.601Z,84.30
2017-06-15T02:23:13.155Z,85.40
2017-06-15T02:25:43.848Z,84.80
2017-06-15T02:28:15.039Z,84.90
2017-06-15T02:30:46.262Z,85.00
2017-06-15T02:33:17.243Z,84.70
2017-06-15T02:35:47.603Z,85.10
2017-06-15T02:38:18.235Z,85.20
2017-06-15T02:40:48.383Z,85.30
2017-06-15T02:43:18.524Z,85.70
2017-06-15T02:45:48.670Z,85.70
2017-06-15T02:48:18.850Z,85.40
2017-06-15T02:50:49.257Z,85.30
2017-06-15T02:53:19.920Z,85.20
2017-06-15T02:55:50.346Z,85.30
2017-06-15T02:58:20.914Z,85.30
2017-06-15T03:00:51.695Z,85.30
2017-06-15T03:03:22.278Z,85.50
2017-06-15T03:05:52.496Z,85.20
2017-06-15T03:08:22.850Z,85.10
2017-06-15T03:10:53.627Z,85.00
2017-06-15T03:13:24.106Z,84.90
2017-06-15T03:15:54.467Z,85.00
2017-06-15T03:18:25.263Z,84.90
2017-06-15T03:20:55.740Z,85.00
2017-06-15T03:23:26.580Z,84.90
2017-06-15T03:25:57.309Z,84.90
2017-06-15T03:28:27.675Z,85.10
2017-06-15T03:30:58.060Z,85.00
2017-06-15T03:33:28.671Z,84.40
2017-06-15T03:35:59.307Z,84.40
2017-06-15T03:38:29.808Z,84.00
2017-06-15T03:41:00.485Z,83.80
2017-06-15T03:43:31.020Z,84.10
2017-06-15T03:46:01.462Z,84.60
2017-06-15T03:48:32.023Z,84.30
2017-06-15T03:51:02.411Z,84.20
2017-06-15T03:53:33.362Z,83.70
2017-06-15T03:56:03.908Z,83.00
2017-06-15T03:58:34.403Z,82.50
2017-06-15T04:01:04.899Z,82.80
2017-06-15T04:03:35.027Z,81.90
2017-06-15T04:06:05.679Z,81.50
2017-06-15T04:08:37.798Z,81.40
2017-06-15T04:11:08.225Z,81.30
2017-06-15T04:13:38.895Z,81.30
2017-06-15T04:16:09.456Z,81.50
2017-06-15T04:18:39.991Z,81.50
2017-06-15T04:21:10.629Z,80.20
2017-06-15T04:23:41.164Z,79.90
2017-06-15T04:26:11.547Z,79.90
2017-06-15T04:28:42.491Z,79.70
2017-06-15T04:31:12.807Z,80.30
2017-06-15T04:33:44.967Z,80.20
2017-06-15T04:36:15.805Z,80.00
2017-06-15T04:38:47.026Z,74.00
2017-06-15T04:41:17.647Z,73.80
2017-06-15T04:43:48.223Z,69.20
2017-06-15T04:46:19.441Z,60.80
2017-06-15T04:48:49.913Z,60.60
2017-06-15T04:51:20.411Z,57.40
2017-06-15T04:53:51.783Z,54.70
2017-06-15T04:56:22.502Z,54.60
2017-06-15T04:58:53.554Z,53.90
2017-06-15T05:01:24.110Z,53.90
2017-06-15T05:03:55.171Z,51.30
2017-06-15T05:06:25.743Z,48.30
2017-06-15T05:08:56.651Z,47.30
2017-06-15T05:11:27.521Z,48.80
2017-06-15T05:13:57.943Z,49.60
2017-06-15T05:16:28.321Z,50.60
2017-06-15T05:18:59.235Z,51.50
2017-06-15T05:21:29.775Z,51.10
2017-06-15T05:24:00.496Z,52.50
2017-06-15T05:26:31.134Z,53.70
2017-06-15T05:29:01.504Z,57.00
2017-06-15T05:31:32.200Z,59.40
2017-06-15T05:34:03.246Z,59.20
2017-06-15T05:36:34.532Z,57.90
2017-06-15T05:39:05.216Z,57.90
2017-06-15T05:41:35.383Z,55.30
2017-06-15T05:44:05.530Z,52.10
2017-06-15T05:46:36.153Z,53.50
2017-06-15T05:49:06.299Z,55.00
2017-06-15T05:51:36.419Z,56.30
2017-06-15T05:54:07.316Z,55.60
2017-06-15T05:59:22.722Z,53.60
2017-06-15T06:01:53.242Z,53.60
2017-06-15T06:04:23.860Z,53.90
2017-06-15T06:06:54.669Z,53.30
2017-06-15T06:09:24.878Z,53.10
2017-06-15T06:11:55.300Z,52.20
2017-06-15T06:14:26.149Z,51.70
2017-06-15T06:16:56.456Z,50.60
2017-06-15T06:19:26.776Z,49.90
2017-06-15T06:21:58.364Z,53.60
2017-06-15T06:24:28.776Z,53.50
2017-06-15T06:26:58.916Z,54.10
2017-06-15T06:29:29.133Z,54.70
2017-06-15T06:31:59.891Z,57.00
2017-06-15T06:34:30.002Z,57.60
2017-06-15T06:37:00.134Z,57.00
2017-06-15T06:39:30.597Z,58.00
2017-06-15T06:42:00.691Z,59.60
2017-06-15T06:44:30.823Z,60.10
2017-06-15T06:47:01.250Z,59.40
2017-06-15T06:49:31.425Z,56.50
2017-06-15T06:52:01.545Z,54.80
2017-06-15T06:54:32.202Z,50.80
2017-06-15T06:57:02.618Z,50.50
2017-06-15T06:59:32.832Z,50.30
2017-06-15T07:04:43.834Z,49.20
2017-06-15T07:07:15.715Z,45.70
2017-06-15T07:09:46.398Z,44.20
2017-06-15T07:12:23.044Z,42.30
2017-06-15T07:14:54.436Z,40.40
2017-06-15T07:17:24.716Z,40.30
2017-06-15T07:19:55.927Z,40.20
2017-06-15T07:22:26.842Z,39.80
2017-06-15T07:24:57.750Z,38.80
2017-06-15T07:27:28.016Z,38.00
2017-06-15T07:29:58.883Z,38.30
2017-06-15T07:32:29.548Z,38.00
2017-06-15T07:35:02.948Z,37.70
2017-06-15T07:37:33.955Z,37.60
2017-06-15T07:40:04.482Z,37.00
2017-06-15T07:42:36.739Z,36.00
2017-06-15T07:45:07.773Z,35.90
2017-06-15T07:47:38.526Z,39.70
2017-06-15T07:50:09.847Z,33.20
2017-06-15T07:52:40.307Z,33.20
2017-06-15T07:55:10.510Z,31.20
2017-06-15T07:57:41.246Z,30.10
2017-06-15T08:00:11.684Z,31.40
2017-06-15T08:02:41.835Z,33.30
2017-06-15T08:05:12.573Z,32.70
2017-06-15T08:07:48.780Z,29.70
2017-06-15T08:10:27.147Z,32.30
2017-06-15T08:12:58.174Z,30.90
2017-06-15T08:15:28.795Z,33.60
2017-06-15T08:17:59.488Z,36.50
2017-06-15T08:20:29.652Z,40.00
2017-06-15T08:23:00.047Z,40.30
2017-06-15T08:25:30.179Z,40.20
2017-06-15T08:28:00.364Z,38.40
2017-06-15T08:30:30.707Z,38.80
2017-06-15T08:33:01.177Z,38.90
2017-06-15T08:35:31.285Z,36.90
2017-06-15T08:38:01.436Z,39.20
2017-06-15T08:40:31.843Z,38.60
2017-06-15T08:43:01.987Z,40.30
2017-06-15T08:45:32.144Z,39.70
2017-06-15T08:48:02.852Z,39.20
2017-06-15T08:50:33.002Z,39.20
2017-06-15T08:53:03.187Z,40.30
2017-06-15T08:55:33.712Z,40.50
2017-06-15T08:58:04.860Z,40.90
2017-06-15T09:00:36.147Z,43.00
2017-06-15T09:03:06.747Z,42.90
2017-06-15T09:05:37.134Z,42.40
2017-06-15T09:08:07.534Z,43.70
2017-06-15T09:10:37.684Z,43.70
2017-06-15T09:13:07.818Z,43.20
2017-06-15T09:15:38.251Z,42.70
2017-06-15T09:18:08.367Z,40.80
2017-06-15T09:20:38.501Z,41.80
2017-06-15T09:23:08.990Z,41.60
2017-06-15T09:25:39.135Z,43.70
2017-06-15T09:28:09.284Z,44.40
2017-06-15T09:30:39.453Z,45.40
2017-06-15T09:33:09.633Z,45.00
2017-06-15T09:35:40.294Z,44.90
2017-06-15T09:38:10.523Z,44.60
2017-06-15T09:40:40.903Z,46.60
2017-06-15T09:43:11.400Z,44.90
2017-06-15T09:45:41.593Z,44.50
2017-06-15T09:48:11.815Z,45.70
2017-06-15T09:50:42.712Z,42.60
2017-06-15T09:53:12.928Z,44.90
2017-06-15T09:55:43.052Z,43.40
2017-06-15T09:58:13.602Z,45.10
2017-06-15T10:00:43.835Z,43.80
2017-06-15T10:03:14.290Z,44.50
2017-06-15T10:05:44.527Z,44.10
2017-06-15T10:08:14.650Z,44.90
2017-06-15T10:10:44.877Z,45.00
2017-06-15T10:13:16.216Z,44.50
2017-06-15T10:15:46.599Z,44.40
2017-06-15T10:18:17.050Z,44.40
2017-06-15T10:20:47.207Z,45.90
2017-06-15T10:23:19.996Z,44.40
2017-06-15T10:25:50.276Z,45.20
2017-06-15T10:28:20.536Z,45.70
2017-06-15T10:30:50.772Z,43.20
2017-06-15T10:33:20.993Z,44.50
2017-06-15T10:35:51.338Z,45.30
2017-06-15T10:38:21.664Z,44.60
2017-06-15T10:40:51.854Z,46.60
2017-06-15T10:43:23.784Z,46.10
2017-06-15T10:45:53.974Z,46.00
2017-06-15T10:48:24.232Z,44.90
2017-06-15T10:50:54.435Z,45.40
2017-06-15T10:53:24.573Z,45.50
2017-06-15T10:55:54.962Z,45.90
2017-06-15T10:58:25.097Z,47.60
2017-06-15T11:00:55.236Z,46.40
2017-06-15T11:03:25.439Z,45.00
2017-06-15T11:05:55.622Z,45.10
2017-06-15T11:08:26.133Z,45.20
2017-06-15T11:10:56.219Z,46.30
2017-06-15T11:13:26.422Z,46.20
2017-06-15T11:15:56.555Z,44.50
2017-06-15T11:18:26.688Z,45.20
2017-06-15T11:20:56.911Z,45.80
2017-06-15T11:23:27.350Z,45.20
2017-06-15T11:25:57.687Z,44.80
2017-06-15T11:28:28.126Z,45.20
2017-06-15T11:30:58.363Z,44.30
2017-06-15T11:33:30.024Z,42.70
2017-06-15T11:36:00.586Z,42.70
2017-06-15T11:38:31.064Z,42.50
2017-06-15T11:41:01.228Z,43.50
2017-06-15T11:43:31.614Z,43.20
2017-06-15T11:46:01.751Z,43.60
2017-06-15T11:48:32.275Z,43.70
2017-06-15T11:51:03.499Z,43.50
2017-06-15T11:53:33.871Z,43.50
2017-06-15T11:56:03.993Z,44.30
2017-06-15T11:58:34.092Z,43.20
2017-06-15T12:01:04.203Z,42.50
2017-06-15T12:03:34.644Z,42.40
2017-06-15T12:06:04.738Z,42.30
2017-06-15T12:08:35.828Z,43.00
2017-06-15T12:11:05.963Z,41.90
2017-06-15T12:13:37.351Z,42.10
2017-06-15T12:16:08.963Z,40.60
2017-06-15T12:18:42.479Z,39.50
2017-06-15T12:21:19.520Z,39.50
2017-06-15T12:23:49.628Z,39.40
2017-06-15T12:26:19.824Z,40.30
2017-06-15T12:28:50.699Z,39.20
2017-06-15T12:31:21.114Z,39.50
2017-06-15T12:33:51.289Z,39.90
2017-06-15T12:36:21.694Z,41.30
2017-06-15T12:38:52.121Z,39.40
2017-06-15T12:41:22.290Z,41.60
2017-06-15T12:43:52.963Z,38.50
2017-06-15T12:46:23.236Z,38.60
2017-06-15T12:48:53.428Z,39.80
2017-06-15T12:51:23.583Z,39.70
2017-06-15T12:53:53.767Z,38.40
2017-06-15T12:56:24.177Z,38.50
2017-06-15T12:58:54.733Z,38.60
2017-06-15T13:01:25.533Z,37.80
2017-06-15T13:03:55.986Z,38.00
2017-06-15T13:06:27.166Z,37.60
2017-06-15T13:08:57.849Z,39.10
2017-06-15T13:11:28.138Z,37.90
2017-06-15T13:14:00.378Z,38.80
2017-06-15T13:16:31.124Z,38.90
2017-06-15T13:19:02.085Z,37.80
2017-06-15T13:21:44.499Z,36.90
2017-06-15T13:24:15.335Z,37.10
2017-06-15T13:26:45.737Z,37.30
2017-06-15T13:29:15.880Z,37.10
2017-06-15T13:31:46.423Z,36.60
2017-06-15T13:34:17.762Z,37.60
2017-06-15T13:36:48.173Z,36.50
2017-06-15T13:39:20.355Z,38.10
2017-06-15T13:41:51.893Z,38.10
2017-06-15T13:44:23.745Z,37.30
2017-06-15T13:46:57.080Z,37.60
2017-06-15T13:49:27.905Z,37.20
2017-06-15T13:51:58.410Z,37.80
2017-06-15T13:54:28.816Z,38.00
2017-06-15T13:56:59.353Z,37.90
2017-06-15T13:59:35.069Z,38.60
2017-06-15T14:02:17.091Z,38.80
2017-06-15T14:04:47.900Z,38.30
2017-06-15T14:07:18.426Z,39.40
2017-06-15T14:09:48.642Z,38.80
2017-06-15T14:12:21.500Z,38.80
2017-06-15T14:14:53.325Z,38.70
2017-06-15T14:17:24.189Z,39.00
2017-06-15T14:19:55.841Z,39.00
2017-06-15T14:22:26.751Z,38.40
2017-06-15T14:24:57.128Z,38.70
2017-06-15T14:27:27.594Z,38.60
2017-06-15T14:29:57.862Z,38.20
2017-06-15T14:32:28.569Z,38.50
2017-06-15T14:35:01.003Z,38.50
2017-06-15T14:37:31.448Z,38.20
2017-06-15T14:40:06.241Z,38.40
2017-06-15T14:42:37.079Z,38.00
2017-06-15T14:45:08.892Z,37.80
2017-06-15T14:47:39.340Z,38.60
2017-06-15T14:50:10.050Z,38.50
2017-06-15T14:52:40.904Z,37.80
2017-06-15T14:55:11.329Z,37.90
2017-06-15T14:57:41.458Z,37.70
2017-06-15T15:00:12.338Z,38.40
2017-06-15T15:02:43.152Z,37.20
2017-06-15T15:05:13.346Z,38.30
2017-06-15T15:07:43.541Z,38.50
2017-06-15T15:10:13.752Z,38.60
2017-06-15T15:12:43.927Z,38.20
2017-06-15T15:15:14.073Z,37.30
2017-06-15T15:17:44.575Z,37.80
2017-06-15T15:20:15.093Z,38.30
2017-06-15T15:22:45.352Z,37.80
2017-06-15T15:25:16.405Z,38.40
2017-06-15T15:27:47.622Z,38.70
2017-06-15T15:30:17.962Z,38.40
2017-06-15T15:32:48.536Z,37.80
2017-06-15T15:35:20.171Z,38.20
2017-06-15T15:37:50.425Z,38.80
2017-06-15T15:40:20.778Z,38.60
2017-06-15T15:42:53.799Z,37.80
2017-06-15T15:45:24.333Z,37.80
2017-06-15T15:47:55.591Z,38.30
2017-06-15T15:50:25.981Z,37.30
2017-06-15T15:52:56.353Z,38.30
2017-06-15T15:55:27.072Z,37.80
2017-06-15T15:57:57.456Z,37.70
2017-06-15T16:00:28.480Z,37.90
2017-06-15T16:02:59.771Z,38.20
2017-06-15T16:05:29.965Z,38.50
2017-06-15T16:08:00.225Z,38.80
2017-06-15T16:10:32.216Z,38.20
2017-06-15T16:13:02.436Z,38.60
2017-06-15T16:15:33.285Z,38.40
2017-06-15T16:18:03.953Z,38.10
2017-06-15T16:20:34.947Z,38.70
2017-06-15T16:23:05.172Z,38.30
2017-06-15T16:25:36.126Z,38.20
2017-06-15T16:31:04.605Z,38.90
2017-06-15T16:33:35.918Z,38.20
2017-06-15T16:36:07.030Z,38.10
2017-06-15T16:38:37.665Z,37.80
2017-06-15T16:41:08.267Z,39.10
2017-06-15T16:43:39.185Z,38.00
2017-06-15T16:46:09.692Z,38.50
2017-06-15T16:48:45.493Z,39.00
2017-06-15T16:51:16.512Z,38.60
2017-06-15T16:53:46.744Z,39.90
2017-06-15T16:56:17.277Z,38.30
2017-06-15T16:58:47.828Z,38.20
2017-06-15T17:01:21.819Z,38.70
2017-06-15T17:03:55.571Z,39.00
2017-06-15T17:06:28.840Z,38.50
2017-06-15T17:09:02.623Z,38.80
2017-06-15T17:11:33.818Z,38.60
2017-06-15T17:14:04.705Z,39.50
2017-06-15T17:16:38.197Z,39.30
2017-06-15T17:19:10.253Z,40.00
2017-06-15T17:21:42.648Z,39.50
2017-06-15T17:24:15.861Z,40.40
2017-06-15T17:26:46.476Z,40.20
2017-06-15T17:29:17.289Z,40.70
2017-06-15T17:31:48.365Z,42.00
2017-06-15T17:34:18.733Z,41.10
2017-06-15T17:36:49.131Z,41.70
2017-06-15T17:39:19.320Z,42.30
2017-06-15T17:41:49.757Z,42.40
2017-06-15T17:44:21.032Z,42.60
2017-06-15T17:46:51.969Z,42.90
2017-06-15T17:49:22.311Z,42.40
2017-06-15T17:51:52.697Z,42.50
2017-06-15T17:54:22.844Z,42.50
2017-06-15T17:56:53.130Z,42.20
2017-06-15T17:59:23.462Z,44.00
2017-06-15T18:01:53.725Z,45.00
2017-06-15T18:04:25.780Z,45.80
2017-06-15T18:06:56.456Z,45.10
2017-06-15T18:09:27.380Z,46.00
2017-06-15T18:11:57.968Z,48.20
2017-06-15T18:14:28.164Z,48.30
2017-06-15T18:16:58.721Z,48.70
2017-06-15T18:19:29.321Z,49.60
2017-06-15T18:21:59.922Z,50.30
2017-06-15T18:24:31.345Z,50.10
2017-06-15T18:27:02.070Z,50.70
2017-06-15T18:29:32.262Z,50.50
2017-06-15T18:32:02.426Z,50.90
2017-06-15T18:34:32.810Z,51.00
2017-06-15T18:37:03.104Z,51.30
2017-06-15T18:39:33.241Z,52.20
2017-06-15T18:42:04.300Z,51.50
2017-06-15T18:44:42.525Z,52.10
2017-06-15T18:50:14.514Z,53.20
2017-06-15T18:56:06.781Z,52.80
2017-06-15T18:58:39.228Z,53.20
2017-06-15T19:01:09.428Z,54.10
2017-06-15T19:03:39.819Z,54.90
2017-06-15T19:06:10.920Z,55.50
2017-06-15T19:08:41.650Z,55.30
2017-06-15T19:11:11.961Z,56.00
2017-06-15T19:13:42.436Z,55.60
2017-06-15T19:16:12.891Z,55.70
2017-06-15T19:18:43.129Z,55.50
2017-06-15T19:21:13.657Z,55.00
2017-06-15T19:23:43.941Z,56.10
2017-06-15T19:26:14.244Z,57.00
2017-06-15T19:28:44.791Z,57.90
2017-06-15T19:31:15.284Z,58.00
2017-06-15T19:33:45.551Z,58.10
2017-06-15T19:36:17.151Z,58.30
2017-06-15T19:38:47.417Z,58.80
2017-06-15T19:41:17.943Z,59.30
2017-06-15T19:43:48.430Z,59.40
2017-06-15T19:46:19.021Z,59.30
2017-06-15T19:48:49.496Z,59.10
2017-06-15T19:51:19.753Z,58.30
2017-06-15T19:53:49.914Z,58.50
2017-06-15T19:56:20.177Z,59.00
2017-06-15T19:58:50.511Z,58.00
2017-06-15T20:01:21.648Z,59.10
2017-06-15T20:03:51.910Z,59.30
2017-06-15T20:06:22.257Z,59.60
2017-06-15T20:08:53.262Z,60.30
2017-06-15T20:11:23.555Z,59.90
2017-06-15T20:13:53.768Z,60.00
2017-06-15T20:16:23.908Z,60.40
2017-06-15T20:18:54.132Z,59.90
2017-06-15T20:21:28.704Z,59.80
2017-06-15T20:23:59.052Z,59.90
2017-06-15T20:26:29.703Z,60.30
2017-06-15T20:29:04.192Z,60.40
2017-06-15T20:31:34.754Z,59.90
2017-06-15T20:34:04.907Z,59.30
2017-06-15T20:36:35.093Z,59.10
2017-06-15T20:39:05.725Z,59.20
2017-06-15T20:41:35.873Z,59.20
2017-06-15T20:44:06.484Z,59.40
2017-06-15T20:46:36.872Z,59.50
2017-06-15T20:49:07.140Z,60.00
2017-06-15T20:51:42.848Z,59.60
2017-06-15T20:54:14.338Z,60.70
2017-06-15T20:56:44.740Z,61.30
2017-06-15T20:59:15.480Z,60.60
2017-06-15T21:01:52.207Z,59.30
2017-06-15T21:04:28.334Z,59.00
2017-06-15T21:07:00.625Z,59.00
2017-06-15T21:09:30.889Z,58.60
2017-06-15T21:12:01.375Z,58.30
2017-06-15T21:14:31.902Z,58.60
2017-06-15T21:17:02.227Z,58.30
2017-06-15T21:19:32.981Z,59.30
2017-06-15T21:22:03.741Z,59.20
2017-06-15T21:24:43.590Z,58.30
2017-06-15T21:27:23.995Z,59.60
2017-06-15T21:29:54.770Z,58.70
2017-06-15T21:32:25.691Z,59.50
2017-06-15T21:34:58.408Z,59.50
2017-06-15T21:37:34.307Z,59.20
2017-06-15T21:40:15.052Z,59.50
2017-06-15T21:42:49.863Z,60.80
2017-06-15T21:45:30.262Z,59.50
2017-06-15T21:48:00.686Z,59.90
2017-06-15T21:50:30.926Z,60.30
2017-06-15T21:53:01.051Z,59.50
2017-06-15T21:55:31.512Z,59.20
2017-06-15T21:58:01.724Z,59.10
2017-06-15T22:00:31.933Z,59.70
2017-06-15T22:03:02.419Z,59.10
2017-06-15T22:05:32.905Z,59.10
2017-06-15T22:08:03.079Z,59.00
2017-06-15T22:10:33.514Z,58.40
2017-06-15T22:13:03.724Z,59.40
2017-06-15T22:15:33.888Z,59.60
2017-06-15T22:18:04.313Z,59.40
2017-06-15T22:20:35.532Z,59.30
2017-06-15T22:23:07.008Z,59.20
2017-06-15T22:25:37.856Z,59.10
2017-06-15T22:28:07.964Z,58.90
2017-06-15T22:30:38.116Z,59.80
2017-06-15T22:33:08.557Z,59.70
2017-06-15T22:35:38.709Z,59.70
2017-06-15T22:38:09.180Z,59.70
2017-06-15T22:40:39.569Z,58.80
2017-06-15T22:43:09.757Z,57.80
2017-06-15T22:45:40.145Z,56.80
2017-06-15T22:48:10.264Z,55.50
2017-06-15T22:50:40.499Z,54.90
2017-06-15T22:53:11.217Z,54.10
2017-06-15T22:55:41.602Z,53.10
2017-06-15T22:58:12.374Z,53.20
2017-06-15T23:00:44.264Z,53.40
2017-06-15T23:03:23.263Z,53.10
2017-06-15T23:05:54.000Z,52.00
2017-06-15T23:08:24.570Z,51.60
2017-06-15T23:10:55.112Z,51.50
2017-06-15T23:13:25.316Z,50.60
2017-06-15T23:15:55.472Z,50.70
2017-06-15T23:18:25.616Z,50.80
2017-06-15T23:20:55.753Z,51.30
2017-06-15T23:23:26.185Z,51.10
2017-06-15T23:25:56.409Z,51.20
2017-06-15T23:28:26.604Z,50.90
2017-06-15T23:30:57.204Z,50.20
2017-06-15T23:33:27.367Z,49.70
2017-06-15T23:35:57.519Z,49.20
2017-06-15T23:38:27.749Z,49.40
2017-06-15T23:40:58.112Z,49.30
2017-06-15T23:43:28.525Z,49.40
2017-06-15T23:45:59.185Z,49.60
2017-06-15T23:48:29.335Z,49.10
2017-06-15T23:51:00.220Z,49.10
2017-06-15T23:53:30.606Z,48.80
2017-06-15T23:56:00.982Z,48.70
2017-06-15T23:58:31.716Z,48.40
